Time;durP1;ratioP1;P1;durP2;ratioP2;P2;SDS_P1;SDS_P2;PMS_P1;PMS_P2;Temp;Humidity;BMP_temperature;BMP_pressure;BME280_temperature;BME280_humidity;BME280_pressure;Samples;Min_cycle;Max_cycle;Signal;HPM_P1;HPM_P2
2022/08/06 00:03:53;;;;;;;6.47;2.40;;;20.60;93.00;;;;;;10480769;28;20188;-78
2022/08/06 00:09:14;;;;;;;3.08;2.25;;;20.50;77.00;;;;;;10484513;28;20290;-78
2022/08/06 00:14:36;;;;;;;5.20;2.33;;;20.40;67.60;;;;;;10435585;28;20405;-78
2022/08/06 00:19:58;;;;;;;2.80;2.03;;;20.40;93.20;;;;;;10400802;28;20553;-77
2022/08/06 00:25:19;;;;;;;4.82;2.25;;;20.40;92.30;;;;;;10414548;28;20236;-79
2022/08/06 00:30:40;;;;;;;4.05;1.95;;;20.40;84.50;;;;;;10400197;28;20531;-79
2022/08/06 00:36:03;;;;;;;3.92;2.15;;;20.30;75.90;;;;;;10432719;28;20200;-80
2022/08/06 00:41:25;;;;;;;4.53;2.15;;;20.30;89.20;;;;;;10441040;28;20192;-80
2022/08/06 00:46:47;;;;;;;6.88;2.22;;;20.30;64.90;;;;;;10441883;28;20547;-79
2022/08/06 00:52:08;;;;;;;3.35;1.88;;;20.30;72.30;;;;;;10426537;28;20224;-80
2022/08/06 00:57:30;;;;;;;3.33;2.10;;;20.30;41.50;;;;;;10464803;28;20208;-79
2022/08/06 01:02:51;;;;;;;3.05;1.60;;;20.30;51.10;;;;;;10498007;28;20199;-79
2022/08/06 01:08:13;;;;;;;3.75;1.95;;;20.20;57.50;;;;;;10482118;28;20377;-79
2022/08/06 01:13:35;;;;;;;3.45;1.50;;;20.30;85.00;;;;;;10407165;28;20228;-79
2022/08/06 01:19:20;;;;;;;6.55;1.50;;;20.20;22.10;;;;;;10384427;28;20241;-81
2022/08/06 01:25:02;;;;;;;5.72;1.48;;;19.90;1.00;;;;;;10398335;28;20197;-79
2022/08/06 01:30:31;;;;;;;3.67;1.30;;;20.00;1.00;;;;;;10384058;28;20232;-81
2022/08/06 01:36:01;;;;;;;4.57;1.02;;;19.70;1.00;;;;;;10415857;28;20224;-81
2022/08/06 01:41:38;;;;;;;2.00;0.88;;;19.60;1.00;;;;;;10397414;28;20427;-79
2022/08/06 01:47:05;;;;;;;3.15;1.05;;;19.50;1.00;;;;;;10402726;28;20208;-81
2022/08/06 01:52:28;;;;;;;3.00;1.10;;;19.50;1.00;;;;;;10397034;28;20220;-80
2022/08/06 01:57:55;;;;;;;4.57;1.10;;;19.50;1.00;;;;;;10482180;28;20199;-79
2022/08/06 02:03:26;;;;;;;2.53;1.13;;;19.40;1.00;;;;;;10495661;28;20230;-79
2022/08/06 02:08:49;;;;;;;3.00;0.82;;;19.50;1.00;;;;;;10478609;28;20207;-80
2022/08/06 02:14:14;;;;;;;4.47;1.23;;;19.40;1.00;;;;;;10398483;28;20204;-79
2022/08/06 02:19:37;;;;;;;1.88;0.82;;;19.30;1.00;;;;;;10382052;28;20245;-80
2022/08/06 02:25:05;;;;;;;3.42;0.88;;;19.20;1.00;;;;;;10395739;28;20511;-80
2022/08/06 02:30:34;;;;;;;1.33;0.73;;;19.10;1.00;;;;;;10412209;28;20296;-80
2022/08/06 02:36:00;;;;;;;4.53;0.77;;;;;;;;;;10428108;28;20219;-80
2022/08/06 02:41:37;;;;;;;2.25;0.80;;;18.90;1.00;;;;;;10437365;28;20443;-79
2022/08/06 02:47:12;;;;;;;2.95;1.02;;;18.90;1.00;;;;;;10437530;28;20193;-80
2022/08/06 02:52:45;;;;;;;1.75;0.88;;;;;;;;;;10408299;28;20565;-79
2022/08/06 02:58:13;;;;;;;1.63;0.70;;;18.60;1.00;;;;;;10466831;28;20199;-80
2022/08/06 03:03:37;;;;;;;4.18;1.08;;;18.60;1.00;;;;;;10493406;28;20261;-81
2022/08/06 03:09:01;;;;;;;1.48;0.70;;;18.50;1.00;;;;;;10476788;28;20196;-81
2022/08/06 03:14:23;;;;;;;1.75;0.70;;;18.40;1.00;;;;;;10445517;28;20204;-80
2022/08/06 03:19:46;;;;;;;2.50;0.75;;;18.40;1.00;;;;;;10436352;28;20255;-77
2022/08/06 03:25:09;;;;;;;2.30;1.25;;;18.30;1.00;;;;;;10435479;28;20340;-77
2022/08/06 03:30:31;;;;;;;1.45;0.70;;;18.30;1.00;;;;;;10435160;28;20421;-80
2022/08/06 03:35:55;;;;;;;0.80;0.73;;;18.40;1.00;;;;;;10393962;28;20204;-79
2022/08/06 03:41:18;;;;;;;3.38;1.10;;;18.40;1.00;;;;;;10403559;28;20193;-77
2022/08/06 03:47:02;;;;;;;0.98;0.77;;;18.20;1.00;;;;;;10388424;28;20224;-77
2022/08/06 03:52:30;;;;;;;1.15;0.88;;;18.10;1.00;;;;;;10388511;28;20298;-79
2022/08/06 03:57:55;;;;;;;2.05;1.08;;;18.10;1.00;;;;;;10443047;28;20587;-77
2022/08/06 04:03:18;;;;;;;3.30;1.20;;;18.10;1.00;;;;;;10469456;28;20206;-78
2022/08/06 04:08:41;;;;;;;2.08;1.00;;;18.10;1.00;;;;;;10483603;28;20204;-78
2022/08/06 04:14:04;;;;;;;2.67;0.90;;;18.20;1.00;;;;;;10435514;28;20278;-78
2022/08/06 04:19:28;;;;;;;2.75;0.80;;;18.20;1.00;;;;;;10403587;28;20255;-79
2022/08/06 04:24:50;;;;;;;0.93;0.70;;;18.30;1.00;;;;;;10401945;28;20388;-79
2022/08/06 04:30:12;;;;;;;4.50;1.02;;;18.40;1.00;;;;;;10401458;28;20276;-79
2022/08/06 04:35:34;;;;;;;1.52;0.60;;;18.50;1.00;;;;;;10402014;28;20213;-79
2022/08/06 04:40:55;;;;;;;2.00;0.80;;;18.50;1.00;;;;;;10401198;28;20389;-79
2022/08/06 04:46:17;;;;;;;3.53;0.90;;;18.50;1.00;;;;;;10399421;28;20201;-79
2022/08/06 04:51:39;;;;;;;3.10;0.73;;;18.60;1.00;;;;;;10385633;28;20274;-79
2022/08/06 04:57:01;;;;;;;2.03;0.70;;;18.60;1.00;;;;;;10440416;28;20195;-79
2022/08/06 05:02:22;;;;;;;2.25;0.98;;;18.70;1.00;;;;;;10453258;28;20223;-80
2022/08/06 05:07:45;;;;;;;1.30;0.60;;;18.80;1.00;;;;;;10467148;28;20206;-80
2022/08/06 05:13:10;;;;;;;1.67;1.13;;;18.90;1.00;;;;;;10427064;28;20229;-78
2022/08/06 05:18:39;;;;;;;2.13;0.60;;;18.90;1.00;;;;;;10398400;28;20252;-80
2022/08/06 05:24:03;;;;;;;1.38;0.60;;;18.90;1.00;;;;;;10398518;28;20260;-80
2022/08/06 05:29:24;;;;;;;0.82;0.60;;;19.00;1.00;;;;;;10398020;28;20219;-79
2022/08/06 05:34:46;;;;;;;1.02;0.63;;;19.00;1.00;;;;;;10406101;28;20227;-79
2022/08/06 05:40:08;;;;;;;1.05;0.70;;;19.10;1.00;;;;;;10438863;28;20211;-80
2022/08/06 05:45:30;;;;;;;1.75;0.88;;;19.20;1.00;;;;;;10439496;28;20394;-79
2022/08/06 05:51:04;;;;;;;1.40;0.82;;;19.30;1.00;;;;;;10424275;28;20421;-79
2022/08/06 05:56:31;;;;;;;1.67;0.88;;;19.20;1.00;;;;;;10453824;28;20480;-79
2022/08/06 06:01:54;;;;;;;5.30;1.38;;;19.20;1.00;;;;;;10494661;28;20203;-79
2022/08/06 06:07:16;;;;;;;2.38;1.10;;;19.20;1.00;;;;;;10464733;28;20238;-81
2022/08/06 06:12:39;;;;;;;1.10;0.98;;;19.30;1.00;;;;;;10463014;28;20240;-80
2022/08/06 06:18:19;;;;;;;1.20;0.60;;;19.40;1.00;;;;;;10382014;28;20535;-79
2022/08/06 06:23:51;;;;;;;2.05;1.15;;;19.50;1.00;;;;;;10396234;28;20197;-80
2022/08/06 06:29:31;;;;;;;1.77;0.93;;;19.50;1.00;;;;;;10395499;28;20253;-80
2022/08/06 06:34:59;;;;;;;3.00;1.20;;;19.60;1.00;;;;;;10418899;28;20204;-80
2022/08/06 06:40:54;;;;;;;2.45;0.80;;;19.60;1.00;;;;;;10422569;28;20254;-79
2022/08/06 06:46:20;;;;;;;4.68;1.08;;;19.80;1.00;;;;;;10436377;28;20256;-79
2022/08/06 06:51:47;;;;;;;2.42;1.42;;;19.90;1.00;;;;;;10435980;28;20258;-80
2022/08/06 06:57:11;;;;;;;3.33;1.25;;;20.00;1.00;;;;;;10443138;28;20287;-80
2022/08/06 07:02:39;;;;;;;4.47;0.93;;;20.10;1.00;;;;;;10493812;28;20273;-82
2022/08/06 07:08:02;;;;;;;4.00;1.00;;;20.20;1.00;;;;;;10493525;28;20502;-79
2022/08/06 07:13:25;;;;;;;4.20;0.90;;;20.40;1.00;;;;;;10388690;28;20228;-80
2022/08/06 07:18:49;;;;;;;3.20;1.55;;;20.40;1.00;;;;;;10394405;28;20531;-80
2022/08/06 07:24:14;;;;;;;3.33;1.70;;;20.40;99.90;;;;;;10380444;28;20281;-81
2022/08/06 07:29:36;;;;;;;1.85;1.00;;;20.30;99.90;;;;;;10410721;28;20213;-80
2022/08/06 07:34:58;;;;;;;1.58;0.90;;;20.30;99.90;;;;;;10417862;28;20206;-80
2022/08/06 07:40:42;;;;;;;2.97;1.00;;;20.10;99.90;;;;;;10434803;28;20223;-80
2022/08/06 07:46:07;;;;;;;3.40;1.00;;;20.10;1.00;;;;;;10434723;28;20246;-81
2022/08/06 07:51:33;;;;;;;1.77;0.90;;;20.00;99.90;;;;;;10434847;28;20230;-80
2022/08/06 07:56:56;;;;;;;4.30;1.20;;;20.00;99.90;;;;;;10440619;28;20250;-79
2022/08/06 08:02:18;;;;;;;2.00;0.98;;;20.40;99.90;;;;;;10492474;28;20210;-80
2022/08/06 08:07:40;;;;;;;3.85;1.75;;;21.30;99.90;;;;;;10461835;28;20620;-80
2022/08/06 08:13:02;;;;;;;6.68;1.50;;;21.40;99.90;;;;;;10423396;28;20220;-81
2022/08/06 08:18:31;;;;;;;1.83;0.80;;;21.50;99.90;;;;;;10379297;28;20240;-80
2022/08/06 08:23:53;;;;;;;1.52;0.80;;;21.20;18.70;;;;;;10397077;28;20193;-80
2022/08/06 08:29:15;;;;;;;4.15;1.30;;;20.80;54.20;;;;;;10416844;28;20496;-80
2022/08/06 08:34:37;;;;;;;3.25;0.90;;;20.70;99.90;;;;;;10421750;28;20235;-81
2022/08/06 08:39:58;;;;;;;1.38;0.80;;;21.20;1.00;;;;;;10440918;28;20517;-80
2022/08/06 08:45:21;;;;;;;3.00;0.63;;;21.40;1.00;;;;;;10440748;28;20246;-80
2022/08/06 08:50:43;;;;;;;3.80;0.75;;;21.40;1.00;;;;;;10440507;28;20222;-81
2022/08/06 08:56:06;;;;;;;4.20;0.80;;;21.40;1.00;;;;;;10425312;28;20456;-80
2022/08/06 09:01:28;;;;;;;8.98;1.13;;;22.10;50.50;;;;;;10481515;28;20188;-80
2022/08/06 09:06:49;;;;;;;2.33;0.80;;;;;;;;;;10481183;28;20192;-80
2022/08/06 09:12:12;;;;;;;2.97;0.80;;;23.80;99.90;;;;;;10463252;28;20247;-81
2022/08/06 09:17:34;;;;;;;1.88;0.68;;;25.30;99.90;;;;;;10414793;28;20236;-80
2022/08/06 09:22:58;;;;;;;2.10;0.70;;;25.30;1.00;;;;;;10398033;28;20227;-82
2022/08/06 09:28:42;;;;;;;3.28;0.90;;;24.00;1.00;;;;;;10414649;28;20204;-81
2022/08/06 09:34:05;;;;;;;2.22;0.60;;;24.60;1.00;;;;;;10415301;28;20220;-82
2022/08/06 09:39:41;;;;;;;0.90;0.65;;;25.30;1.00;;;;;;10439237;28;20193;-81
2022/08/06 09:45:07;;;;;;;3.28;0.90;;;24.70;1.00;;;;;;10438417;28;20423;-81
2022/08/06 09:50:41;;;;;;;1.20;0.60;;;24.70;1.00;;;;;;10438077;28;20224;-80
2022/08/06 09:56:16;;;;;;;1.58;0.45;;;24.80;1.00;;;;;;10436482;28;20200;-82
2022/08/06 10:01:43;;;;;;;2.05;0.77;;;24.20;99.90;;;;;;10465012;28;20509;-81
2022/08/06 10:07:04;;;;;;;2.65;0.77;;;24.00;99.90;;;;;;10464944;28;20229;-82
2022/08/06 10:12:26;;;;;;;1.48;0.90;;;23.90;99.90;;;;;;10435790;28;20233;-82
2022/08/06 10:17:47;;;;;;;0.95;0.60;;;24.10;99.90;;;;;;10398505;28;20248;-81
2022/08/06 10:23:09;;;;;;;1.27;0.50;;;24.60;99.90;;;;;;10397115;28;20196;-82
2022/08/06 10:28:33;;;;;;;0.60;0.50;;;25.30;99.90;;;;;;10412214;28;20201;-82
2022/08/06 10:34:02;;;;;;;0.68;0.40;;;26.40;99.90;;;;;;10411621;28;20232;-82
2022/08/06 10:39:28;;;;;;;0.63;0.40;;;26.70;99.90;;;;;;10436351;28;20197;-80
2022/08/06 10:44:50;;;;;;;1.83;0.50;;;26.50;99.90;;;;;;10435682;28;20292;-82
2022/08/06 10:50:13;;;;;;;3.17;0.60;;;27.30;99.90;;;;;;10422158;28;20189;-82
2022/08/06 10:55:35;;;;;;;1.80;0.88;;;27.40;99.90;;;;;;10444733;28;20192;-81
2022/08/06 11:00:59;;;;;;;1.02;0.43;;;27.60;99.90;;;;;;10477314;28;20362;-80
2022/08/06 11:06:40;;;;;;;5.95;0.70;;;27.70;99.90;;;;;;10462693;28;20203;-81
2022/08/06 11:12:19;;;;;;;1.00;0.30;;;26.40;99.90;;;;;;10455278;28;20216;-82
2022/08/06 11:17:52;;;;;;;0.98;0.50;;;25.60;99.90;;;;;;10394449;28;20241;-82
2022/08/06 11:23:14;;;;;;;3.17;0.80;;;26.00;99.90;;;;;;10395386;28;20203;-82
2022/08/06 11:28:35;;;;;;;2.15;0.73;;;25.70;99.90;;;;;;10395696;28;20193;-80
2022/08/06 11:34:03;;;;;;;3.95;0.70;;;26.40;99.90;;;;;;10409130;28;20228;-79
2022/08/06 11:39:27;;;;;;;1.92;0.68;;;26.80;99.90;;;;;;10436147;28;20208;-80
2022/08/06 11:45:01;;;;;;;2.10;0.68;;;27.30;99.90;;;;;;10436097;28;20192;-79
2022/08/06 11:50:23;;;;;;;1.65;0.57;;;27.40;99.90;;;;;;10420313;28;20201;-80
2022/08/06 11:56:04;;;;;;;1.00;0.40;;;27.50;76.20;;;;;;10430401;28;20460;-80
2022/08/06 12:01:45;;;;;;;1.58;0.60;;;27.70;52.30;;;;;;10499406;28;20447;-80
2022/08/06 12:07:21;;;;;;;3.33;0.52;;;27.50;29.30;;;;;;10484621;28;20198;-80
2022/08/06 12:12:46;;;;;;;1.25;0.50;;;27.30;20.40;;;;;;10436584;28;20239;-80
2022/08/06 12:18:07;;;;;;;1.77;0.52;;;27.00;12.00;;;;;;10400465;28;20240;-80
2022/08/06 12:23:29;;;;;;;3.28;0.68;;;26.60;4.20;;;;;;10417089;28;20204;-79
2022/08/06 12:28:51;;;;;;;1.52;0.50;;;26.40;10.60;;;;;;10416694;28;20276;-80
2022/08/06 12:34:27;;;;;;;1.13;0.50;;;25.90;15.80;;;;;;10403719;28;20239;-79
2022/08/06 12:45:30;;;;;;;1.13;0.50;;;25.30;15.20;;;;;;10440774;28;20382;-79
2022/08/06 12:51:04;;;;;;;1.35;0.45;;;25.60;9.80;;;;;;10441943;28;20228;-80
2022/08/06 12:56:28;;;;;;;1.70;0.45;;;26.00;25.10;;;;;;10456570;28;20263;-79
2022/08/06 13:01:51;;;;;;;2.08;0.63;;;26.00;14.80;;;;;;10482306;28;20192;-79
2022/08/06 13:07:14;;;;;;;2.28;0.68;;;26.10;9.60;;;;;;10482219;28;20191;-80
2022/08/06 13:12:35;;;;;;;3.80;0.68;;;26.40;6.40;;;;;;10435515;28;20235;-79
2022/08/06 13:18:11;;;;;;;1.38;0.75;;;26.20;7.70;;;;;;10398422;28;20256;-79
2022/08/06 13:23:37;;;;;;;1.77;0.98;;;25.90;5.20;;;;;;10399498;28;20201;-80
2022/08/06 13:29:14;;;;;;;1.20;0.68;;;25.60;1.00;;;;;;10398085;28;20229;-80
2022/08/06 13:34:52;;;;;;;3.05;0.60;;;25.50;1.00;;;;;;10421173;28;20535;-79
2022/08/06 13:40:13;;;;;;;1.90;0.60;;;25.40;1.00;;;;;;10425063;28;20193;-79
2022/08/06 13:45:35;;;;;;;1.50;0.73;;;25.10;1.00;;;;;;10439354;28;20216;-81
2022/08/06 13:50:56;;;;;;;0.80;0.60;;;25.10;1.00;;;;;;10438481;28;20446;-80
2022/08/06 13:56:18;;;;;;;2.60;0.60;;;24.70;1.00;;;;;;10452514;28;20413;-82
2022/08/06 14:01:39;;;;;;;0.70;0.47;;;24.40;1.00;;;;;;10451305;28;20206;-80
2022/08/06 14:07:00;;;;;;;1.23;0.65;;;24.40;1.00;;;;;;10479160;28;20266;-80
2022/08/06 14:12:22;;;;;;;7.80;1.27;;;24.40;1.00;;;;;;10451631;28;20236;-80
2022/08/06 14:17:46;;;;;;;3.53;0.60;;;24.40;1.00;;;;;;10396469;28;20232;-80
2022/08/06 14:23:07;;;;;;;3.92;1.23;;;24.20;1.00;;;;;;10396726;28;20287;-80
2022/08/06 14:28:28;;;;;;;2.53;1.15;;;24.10;1.00;;;;;;10396068;28;20197;-80
2022/08/06 14:33:50;;;;;;;2.15;0.70;;;24.00;2.80;;;;;;10410541;28;20290;-80
2022/08/06 14:39:11;;;;;;;1.55;0.75;;;23.70;1.00;;;;;;10437802;28;20199;-79
2022/08/06 14:50:32;;;;;;;0.57;0.50;;;23.80;1.00;;;;;;10420125;28;20203;-79
2022/08/06 14:55:53;;;;;;;3.30;0.95;;;23.60;1.00;;;;;;10431137;28;20203;-80
2022/08/06 15:01:15;;;;;;;1.35;0.63;;;23.50;1.00;;;;;;10430116;28;20218;-80
2022/08/06 15:06:36;;;;;;;3.17;0.90;;;23.20;1.00;;;;;;10457645;28;20219;-80
2022/08/06 15:11:58;;;;;;;1.95;0.70;;;23.00;1.00;;;;;;10406187;28;20472;-79
2022/08/06 15:17:20;;;;;;;3.95;1.15;;;22.80;1.00;;;;;;10375607;28;20244;-79
2022/08/06 15:22:42;;;;;;;1.85;0.65;;;22.80;1.00;;;;;;10380588;28;20248;-79
2022/08/06 15:28:03;;;;;;;1.15;0.68;;;22.60;1.00;;;;;;10394628;28;20197;-79
2022/08/06 15:33:28;;;;;;;3.85;1.00;;;22.50;1.00;;;;;;10409605;28;20224;-79
2022/08/06 15:38:51;;;;;;;3.63;0.88;;;22.50;1.00;;;;;;10429447;28;20200;-79
2022/08/06 15:44:13;;;;;;;1.90;0.95;;;22.40;1.00;;;;;;10443419;28;20219;-80
2022/08/06 15:49:37;;;;;;;1.58;0.77;;;22.30;1.00;;;;;;10444148;28;20222;-79
2022/08/06 15:54:58;;;;;;;1.25;0.80;;;22.20;1.00;;;;;;10446531;28;20498;-79
2022/08/06 16:00:19;;;;;;;2.10;1.00;;;22.10;1.00;;;;;;10500558;28;20208;-80
2022/08/06 16:05:42;;;;;;;1.52;0.73;;;21.90;3.90;;;;;;10484953;28;20191;-79
2022/08/06 16:11:04;;;;;;;1.13;0.70;;;21.90;5.90;;;;;;10475929;28;20333;-80
2022/08/06 16:16:25;;;;;;;2.92;0.80;;;21.80;9.90;;;;;;10402839;28;20220;-80
2022/08/06 16:21:46;;;;;;;3.80;1.00;;;21.70;14.30;;;;;;10400984;28;20197;-80
2022/08/06 16:27:08;;;;;;;3.13;1.10;;;21.70;10.60;;;;;;10403302;28;20276;-79
2022/08/06 16:32:29;;;;;;;1.60;0.70;;;21.60;9.40;;;;;;10405268;28;20216;-80
2022/08/06 16:37:51;;;;;;;1.35;0.80;;;21.50;9.50;;;;;;10440871;28;20271;-79
2022/08/06 16:43:13;;;;;;;4.53;1.30;;;21.40;9.00;;;;;;10441340;28;20204;-80
2022/08/06 16:48:34;;;;;;;2.55;1.67;;;21.20;11.40;;;;;;10440628;28;20200;-79
2022/08/06 16:53:55;;;;;;;1.15;0.90;;;21.00;11.30;;;;;;10426250;28;20295;-79
2022/08/06 16:59:18;;;;;;;4.13;2.20;;;20.90;13.80;;;;;;10465686;28;20197;-82
2022/08/06 17:04:40;;;;;;;4.50;1.20;;;20.80;18.40;;;;;;10467123;28;20257;-82
2022/08/06 17:10:04;;;;;;;1.88;1.27;;;20.70;20.30;;;;;;10497708;28;20382;-82
2022/08/06 17:15:25;;;;;;;2.00;1.10;;;20.70;23.10;;;;;;10398205;28;20235;-79
2022/08/06 17:20:47;;;;;;;1.60;0.75;;;20.60;21.50;;;;;;10412013;28;20433;-80
2022/08/06 17:26:09;;;;;;;2.42;1.15;;;20.40;21.60;;;;;;10398596;28;20396;-79
2022/08/06 17:31:30;;;;;;;4.50;0.80;;;20.20;14.70;;;;;;10398460;28;20217;-79
2022/08/06 17:36:52;;;;;;;0.70;0.70;;;20.10;15.80;;;;;;10410509;28;20205;-80
2022/08/06 17:42:13;;;;;;;1.60;0.98;;;20.00;19.90;;;;;;10384379;28;20196;-79
2022/08/06 17:47:35;;;;;;;0.88;0.70;;;19.90;21.50;;;;;;10413891;28;20237;-79
2022/08/06 17:52:57;;;;;;;1.42;0.75;;;19.80;22.40;;;;;;10413805;28;20228;-80
2022/08/06 17:58:23;;;;;;;1.58;0.90;;;19.70;25.90;;;;;;10458507;28;20271;-79
2022/08/06 18:03:45;;;;;;;1.42;0.82;;;19.50;28.90;;;;;;10464982;28;20206;-80
2022/08/06 18:09:07;;;;;;;2.63;1.08;;;19.40;35.50;;;;;;10495534;28;20199;-79
2022/08/06 18:14:28;;;;;;;4.10;1.05;;;19.40;40.90;;;;;;10409699;28;20224;-82
2022/08/06 18:19:49;;;;;;;1.55;1.10;;;19.30;49.70;;;;;;10396305;28;20232;-80
2022/08/06 18:25:12;;;;;;;1.75;1.23;;;19.40;58.50;;;;;;10382313;28;20205;-81
2022/08/06 18:30:34;;;;;;;4.80;1.30;;;19.30;69.50;;;;;;10396135;28;20200;-80
2022/08/06 18:35:55;;;;;;;2.55;1.13;;;19.30;79.30;;;;;;10419277;28;20244;-81
2022/08/06 18:41:17;;;;;;;1.75;1.05;;;19.30;90.60;;;;;;10395860;28;20193;-80
2022/08/06 18:46:39;;;;;;;2.38;1.10;;;19.30;95.10;;;;;;10395459;28;20400;-81
2022/08/06 18:52:00;;;;;;;1.58;0.95;;;19.20;99.90;;;;;;10428390;28;20519;-82
2022/08/06 18:57:24;;;;;;;1.67;1.17;;;19.10;99.90;;;;;;10474531;28;20199;-81
2022/08/06 19:02:45;;;;;;;2.95;1.10;;;18.90;99.90;;;;;;10477474;28;20207;-79
2022/08/06 19:08:07;;;;;;;1.00;0.88;;;18.90;99.90;;;;;;10463947;28;20608;-80
2022/08/06 19:13:28;;;;;;;3.90;0.80;;;18.80;99.90;;;;;;10404621;28;20399;-79
2022/08/06 19:18:52;;;;;;;1.00;0.90;;;18.70;99.90;;;;;;10410992;28;20253;-81
2022/08/06 19:24:13;;;;;;;3.63;0.90;;;18.60;99.90;;;;;;10381769;28;20228;-81
2022/08/06 19:29:36;;;;;;;3.15;1.23;;;18.60;99.90;;;;;;10396581;28;20393;-81
2022/08/06 19:34:57;;;;;;;4.28;1.20;;;18.50;99.90;;;;;;10419997;28;20236;-81
2022/08/06 19:45:58;;;;;;;3.05;1.42;;;18.30;99.90;;;;;;10421524;28;20247;-82
2022/08/06 19:51:20;;;;;;;2.92;1.55;;;18.20;99.90;;;;;;10436075;28;20276;-80
2022/08/06 19:56:41;;;;;;;4.78;1.98;;;18.20;99.90;;;;;;10439235;28;20192;-82
2022/08/06 20:02:03;;;;;;;3.17;1.35;;;18.10;99.90;;;;;;10461562;28;20200;-79
2022/08/06 20:07:25;;;;;;;2.75;1.35;;;18.10;99.90;;;;;;10477082;28;20198;-79
2022/08/06 20:12:47;;;;;;;2.20;1.38;;;18.00;99.90;;;;;;10441990;28;20236;-79
2022/08/06 20:18:08;;;;;;;1.83;1.20;;;18.00;99.90;;;;;;10394618;28;20296;-79
2022/08/06 20:23:30;;;;;;;3.80;1.58;;;17.90;99.90;;;;;;10417156;28;20496;-79
2022/08/06 20:28:52;;;;;;;3.13;1.48;;;17.80;99.90;;;;;;10400473;28;20212;-79
2022/08/06 20:34:13;;;;;;;4.97;1.90;;;17.70;1.00;;;;;;10418098;28;20274;-79
2022/08/06 20:39:34;;;;;;;1.60;1.20;;;17.50;1.00;;;;;;10427721;28;20479;-79
2022/08/06 20:44:56;;;;;;;5.05;1.60;;;17.30;1.00;;;;;;10442187;28;20502;-79
2022/08/06 20:50:17;;;;;;;4.05;2.20;;;17.30;81.50;;;;;;10426819;28;20220;-79
2022/08/06 20:55:39;;;;;;;4.03;2.13;;;17.30;99.90;;;;;;10435998;28;20235;-79
2022/08/06 21:01:00;;;;;;;3.97;2.78;;;17.20;1.00;;;;;;10496052;28;20192;-79
2022/08/06 21:06:22;;;;;;;4.53;2.00;;;17.20;1.00;;;;;;10481706;28;20291;-79
2022/08/06 21:11:43;;;;;;;3.13;1.85;;;17.20;1.00;;;;;;10464676;28;20499;-79
2022/08/06 21:17:05;;;;;;;3.25;2.20;;;17.30;1.00;;;;;;10398898;28;20558;-79
2022/08/06 21:22:27;;;;;;;3.15;1.63;;;17.20;1.00;;;;;;10398616;28;20204;-81
2022/08/06 21:27:48;;;;;;;1.90;1.42;;;17.20;1.00;;;;;;10398508;28;20357;-80
2022/08/06 21:33:10;;;;;;;3.80;1.77;;;17.20;6.90;;;;;;10421358;28;20224;-79
2022/08/06 21:38:32;;;;;;;5.38;1.80;;;17.00;99.90;;;;;;10439137;28;20293;-81
2022/08/06 21:43:58;;;;;;;1.60;1.50;;;16.90;99.90;;;;;;10438856;28;20220;-81
2022/08/06 21:49:20;;;;;;;1.58;1.48;;;16.80;1.00;;;;;;10424836;28;20200;-81
2022/08/06 21:54:41;;;;;;;4.82;1.85;;;16.80;1.00;;;;;;10439682;28;20346;-82
2022/08/06 22:00:09;;;;;;;4.85;1.73;;;16.80;1.00;;;;;;10496232;28;20198;-81
2022/08/06 22:05:31;;;;;;;1.90;1.50;;;16.60;42.60;;;;;;10479170;28;20207;-81
2022/08/06 22:10:53;;;;;;;2.25;1.60;;;16.50;99.90;;;;;;10460515;28;20210;-81
2022/08/06 22:16:14;;;;;;;8.32;2.72;;;16.40;1.00;;;;;;10398648;28;20299;-81
2022/08/06 22:21:36;;;;;;;8.63;3.67;;;16.40;1.00;;;;;;10382626;28;20197;-81
2022/08/06 22:26:57;;;;;;;5.45;3.15;;;16.30;99.90;;;;;;10412607;28;20204;-81
2022/08/06 22:32:18;;;;;;;4.43;2.45;;;16.10;1.00;;;;;;10400603;28;20305;-82
2022/08/06 22:37:40;;;;;;;6.25;2.13;;;16.10;99.90;;;;;;10408952;28;20203;-81
2022/08/06 22:43:03;;;;;;;5.82;3.53;;;16.00;1.00;;;;;;10435989;28;20220;-80
2022/08/06 22:48:25;;;;;;;8.70;3.72;;;16.00;57.60;;;;;;10422553;28;20207;-82
2022/08/06 22:53:47;;;;;;;6.68;4.05;;;16.00;1.00;;;;;;10422111;28;20412;-81
2022/08/06 22:59:08;;;;;;;5.22;3.15;;;15.80;99.90;;;;;;10460216;28;20199;-80
2022/08/06 23:04:30;;;;;;;5.78;3.63;;;15.70;91.20;;;;;;10478473;28;20202;-81
2022/08/06 23:09:55;;;;;;;6.72;3.83;;;15.60;1.00;;;;;;10448785;28;20206;-81
2022/08/06 23:15:17;;;;;;;7.35;3.58;;;15.60;99.90;;;;;;10403256;28;20421;-81
2022/08/06 23:20:39;;;;;;;5.78;3.50;;;15.60;1.00;;;;;;10380742;28;20249;-80
2022/08/06 23:26:00;;;;;;;5.55;4.03;;;15.50;1.00;;;;;;10394358;28;20203;-81
2022/08/06 23:31:23;;;;;;;3.90;3.10;;;15.40;1.00;;;;;;10394400;28;20203;-81
2022/08/06 23:36:44;;;;;;;3.67;2.58;;;15.20;1.00;;;;;;10419605;28;20231;-82
2022/08/06 23:42:06;;;;;;;5.40;3.10;;;15.20;1.00;;;;;;10380241;28;20200;-81
2022/08/06 23:47:28;;;;;;;6.57;3.40;;;15.00;1.00;;;;;;10395362;28;20244;-81
2022/08/06 23:52:49;;;;;;;5.38;2.85;;;15.00;1.00;;;;;;10409886;28;20475;-79
2022/08/06 23:58:10;;;;;;;4.63;2.38;;;14.80;62.10;;;;;;10447974;28;20243;-82
